Time;durP1;ratioP1;P1;durP2;ratioP2;P2;SDS_P1;SDS_P2;PMS_P1;PMS_P2;Temp;Humidity;BMP_temperature;BMP_pressure;BME280_temperature;BME280_humidity;BME280_pressure;Samples;Min_cycle;Max_cycle;Signal;HPM_P1;HPM_P2
2023/01/20 00:01:11;;;;;;;13.57;5.60;;;4.00;99.90;;;;;;4957538;28;20501;-88
2023/01/20 00:03:38;;;;;;;11.65;5.03;;;3.90;99.90;;;;;;4928207;28;20026;-88
2023/01/20 00:06:04;;;;;;;11.30;4.87;;;3.90;99.90;;;;;;4951561;28;20093;-88
2023/01/20 00:08:29;;;;;;;14.85;5.18;;;3.90;99.90;;;;;;4940704;28;20657;-87
2023/01/20 00:10:55;;;;;;;15.07;5.50;;;3.90;99.90;;;;;;4940305;28;20332;-88
2023/01/20 00:13:21;;;;;;;13.75;4.82;;;3.90;99.90;;;;;;4950793;28;20025;-88
2023/01/20 00:15:47;;;;;;;14.60;5.22;;;3.90;99.90;;;;;;4956143;28;20027;-88
2023/01/20 00:18:13;;;;;;;14.52;4.80;;;3.90;99.90;;;;;;4952179;28;20308;-88
2023/01/20 00:20:40;;;;;;;15.67;5.30;;;3.80;99.90;;;;;;4933374;28;20331;-88
2023/01/20 00:23:06;;;;;;;14.32;4.93;;;3.80;99.90;;;;;;4958745;28;20038;-88
2023/01/20 00:25:35;;;;;;;12.07;5.07;;;3.80;99.90;;;;;;4956762;28;20037;-88
2023/01/20 00:28:01;;;;;;;13.13;5.32;;;3.80;99.90;;;;;;4945359;28;20496;-88
2023/01/20 00:30:26;;;;;;;13.33;5.67;;;3.80;99.90;;;;;;4934377;28;20738;-88
2023/01/20 00:32:52;;;;;;;14.02;5.13;;;3.70;99.90;;;;;;4951619;28;20030;-88
2023/01/20 00:35:18;;;;;;;13.00;5.30;;;3.70;99.90;;;;;;4945123;28;20121;-89
2023/01/20 00:37:44;;;;;;;13.27;5.10;;;3.70;99.90;;;;;;4931451;28;20252;-88
2023/01/20 00:40:10;;;;;;;13.33;4.97;;;3.70;99.90;;;;;;4945469;28;20018;-88
2023/01/20 00:42:35;;;;;;;14.30;5.33;;;3.70;99.90;;;;;;4975432;28;20296;-89
2023/01/20 00:45:01;;;;;;;15.63;6.13;;;3.70;99.90;;;;;;4929489;28;20630;-88
2023/01/20 00:47:27;;;;;;;12.60;5.05;;;3.70;99.90;;;;;;4937438;28;20479;-88
2023/01/20 00:49:53;;;;;;;14.50;5.70;;;3.60;99.90;;;;;;4952387;28;20177;-88
2023/01/20 00:52:18;;;;;;;13.00;5.28;;;3.60;99.90;;;;;;4946498;28;20102;-88
2023/01/20 00:54:44;;;;;;;13.70;5.37;;;3.60;99.90;;;;;;4949547;28;20095;-88
2023/01/20 00:57:10;;;;;;;15.73;5.00;;;3.60;99.90;;;;;;4953224;28;20023;-87
2023/01/20 00:59:36;;;;;;;12.87;4.93;;;3.60;99.90;;;;;;4951072;28;20038;-88
2023/01/20 01:02:03;;;;;;;14.15;6.05;;;3.60;99.90;;;;;;4955360;28;20023;-90
2023/01/20 01:04:29;;;;;;;14.80;5.72;;;3.60;99.90;;;;;;4929649;28;20054;-88
2023/01/20 01:06:55;;;;;;;15.90;5.97;;;3.60;99.90;;;;;;4934292;28;20456;-88
2023/01/20 01:09:21;;;;;;;14.35;5.90;;;3.60;99.90;;;;;;4934483;28;20026;-88
2023/01/20 01:11:47;;;;;;;16.10;6.15;;;3.60;99.90;;;;;;4925152;28;20022;-88
2023/01/20 01:14:13;;;;;;;14.88;5.43;;;3.60;99.90;;;;;;4934268;28;20242;-89
2023/01/20 01:16:39;;;;;;;20.20;7.27;;;3.60;99.90;;;;;;4919024;28;20022;-89
2023/01/20 01:19:05;;;;;;;17.88;6.82;;;3.60;99.90;;;;;;4930496;28;20217;-89
2023/01/20 01:21:31;;;;;;;16.93;7.00;;;3.70;99.90;;;;;;4956179;28;20078;-90
2023/01/20 01:23:56;;;;;;;15.20;5.80;;;3.70;99.90;;;;;;4945522;28;20500;-88
2023/01/20 01:26:22;;;;;;;19.48;6.22;;;3.70;99.90;;;;;;4973910;28;20034;-88
2023/01/20 01:28:49;;;;;;;19.33;6.67;;;3.70;99.90;;;;;;4937834;28;20072;-88
2023/01/20 01:31:17;;;;;;;15.90;6.15;;;3.70;99.90;;;;;;4925943;28;21760;-88
2023/01/20 01:33:43;;;;;;;18.17;6.22;;;3.70;99.90;;;;;;4944869;28;20708;-88
2023/01/20 01:36:12;;;;;;;19.10;6.35;;;3.70;99.90;;;;;;4973513;28;20036;-88
2023/01/20 01:38:38;;;;;;;18.40;6.30;;;3.70;99.90;;;;;;4944879;28;20295;-88
2023/01/20 01:41:04;;;;;;;17.27;6.13;;;3.70;99.90;;;;;;4971884;28;20427;-89
2023/01/20 01:43:34;;;;;;;19.27;7.07;;;3.70;99.90;;;;;;4935617;28;20610;-88
2023/01/20 01:46:00;;;;;;;18.20;6.30;;;3.70;99.90;;;;;;4940732;28;20158;-89
2023/01/20 01:48:44;;;;;;;21.88;7.45;;;3.70;99.90;;;;;;4921654;28;20601;-89
2023/01/20 01:51:16;;;;;;;22.42;6.88;;;3.70;99.90;;;;;;4971242;28;20050;-90
2023/01/20 01:53:52;;;;;;;19.30;6.87;;;3.70;99.90;;;;;;4946937;28;20836;-88
2023/01/20 01:56:20;;;;;;;15.13;5.63;;;3.70;99.90;;;;;;4952252;28;20022;-89
2023/01/20 01:58:49;;;;;;;18.05;6.07;;;3.70;99.90;;;;;;4968349;28;20069;-88
2023/01/20 02:01:15;;;;;;;23.73;8.23;;;3.70;99.90;;;;;;4954510;28;21911;-89
2023/01/20 02:04:02;;;;;;;20.35;6.40;;;3.70;99.90;;;;;;4931497;28;20781;-88
2023/01/20 02:06:32;;;;;;;17.57;6.10;;;3.70;99.90;;;;;;4943138;28;20777;-88
2023/01/20 02:09:00;;;;;;;17.20;6.28;;;3.70;99.90;;;;;;4957836;28;20499;-88
2023/01/20 02:11:28;;;;;;;19.33;6.63;;;3.80;99.90;;;;;;4969071;28;20632;-88
2023/01/20 02:13:54;;;;;;;19.17;6.60;;;3.80;99.90;;;;;;4969231;28;20015;-89
2023/01/20 02:16:37;;;;;;;18.67;6.23;;;3.70;99.90;;;;;;4950304;28;20030;-89
2023/01/20 02:19:14;;;;;;;18.40;6.18;;;3.80;99.90;;;;;;4927281;28;20492;-88
2023/01/20 02:22:04;;;;;;;18.40;6.35;;;3.80;99.90;;;;;;4961430;28;20034;-89
2023/01/20 02:24:49;;;;;;;19.15;6.75;;;3.80;99.90;;;;;;4959295;28;20038;-89
2023/01/20 02:27:36;;;;;;;18.10;5.93;;;3.70;99.90;;;;;;4963343;28;20031;-89
2023/01/20 02:30:07;;;;;;;15.73;5.30;;;3.80;99.90;;;;;;4941118;28;20057;-88
2023/01/20 02:32:40;;;;;;;19.70;6.07;;;3.80;99.90;;;;;;4962885;28;20259;-88
2023/01/20 02:35:53;;;;;;;19.30;6.15;;;3.70;99.90;;;;;;4936726;28;20035;-88
2023/01/20 02:38:27;;;;;;;17.92;6.65;;;3.70;99.90;;;;;;4911999;29;20458;-89
2023/01/20 02:41:08;;;;;;;17.30;6.22;;;3.70;99.90;;;;;;4927049;28;20038;-89
2023/01/20 02:43:34;;;;;;;17.73;6.23;;;3.70;99.90;;;;;;4954972;28;20254;-89
2023/01/20 02:46:25;;;;;;;15.07;5.80;;;3.70;99.90;;;;;;4942175;28;20490;-89
2023/01/20 02:49:24;;;;;;;16.90;5.43;;;3.70;99.90;;;;;;4924271;28;20073;-88
2023/01/20 02:51:57;;;;;;;17.65;6.03;;;3.70;99.90;;;;;;4949318;28;20669;-88
2023/01/20 02:54:25;;;;;;;16.30;5.50;;;3.70;99.90;;;;;;4951760;28;20018;-88
2023/01/20 02:56:53;;;;;;;15.20;5.78;;;3.70;99.90;;;;;;4923804;28;20042;-87
2023/01/20 02:59:23;;;;;;;14.18;5.53;;;3.60;99.90;;;;;;4937648;28;20034;-89
2023/01/20 03:01:53;;;;;;;16.45;5.43;;;3.60;99.90;;;;;;4956173;28;20046;-88
2023/01/20 03:04:26;;;;;;;16.30;5.82;;;3.60;99.90;;;;;;4928892;28;20438;-88
2023/01/20 03:06:53;;;;;;;16.90;6.03;;;3.60;99.90;;;;;;4941631;28;20153;-90
2023/01/20 03:09:32;;;;;;;17.73;5.95;;;3.60;99.90;;;;;;4947410;28;20117;-90
2023/01/20 03:12:06;;;;;;;16.65;5.68;;;3.60;99.90;;;;;;4935944;28;20015;-89
2023/01/20 03:14:32;;;;;;;18.40;7.10;;;3.60;99.90;;;;;;4926257;28;20661;-89
2023/01/20 03:16:57;;;;;;;19.50;6.47;;;3.60;99.90;;;;;;4956161;28;20019;-88
2023/01/20 03:19:23;;;;;;;16.83;5.35;;;3.60;99.90;;;;;;4931715;28;20042;-89
2023/01/20 03:21:49;;;;;;;18.50;5.90;;;3.60;99.90;;;;;;4938243;28;20562;-89
2023/01/20 03:24:14;;;;;;;14.73;5.32;;;3.60;99.90;;;;;;4934605;28;20033;-88
2023/01/20 03:26:40;;;;;;;17.53;6.30;;;3.60;99.90;;;;;;4972080;28;20265;-89
2023/01/20 03:29:10;;;;;;;17.65;5.93;;;3.60;99.90;;;;;;4934878;28;20045;-89
2023/01/20 03:31:40;;;;;;;20.40;6.78;;;3.60;99.90;;;;;;4939900;28;20393;-88
2023/01/20 03:34:11;;;;;;;16.57;5.40;;;3.50;99.90;;;;;;4942347;28;20050;-89
2023/01/20 03:36:39;;;;;;;22.48;6.82;;;3.50;99.90;;;;;;4945631;28;20227;-88
2023/01/20 03:39:05;;;;;;;20.15;7.10;;;3.60;99.90;;;;;;4969347;28;20022;-89
2023/01/20 03:41:45;;;;;;;20.25;7.18;;;3.50;99.90;;;;;;4950310;28;20030;-88
2023/01/20 03:44:36;;;;;;;17.33;5.82;;;3.50;99.90;;;;;;4961171;28;20026;-88
2023/01/20 03:47:27;;;;;;;18.00;6.40;;;3.60;99.90;;;;;;4959122;28;20034;-88
2023/01/20 03:50:05;;;;;;;13.70;5.05;;;3.50;99.90;;;;;;4920130;28;20255;-88
2023/01/20 03:52:52;;;;;;;13.90;4.32;;;3.50;99.90;;;;;;4957815;28;20456;-87
2023/01/20 03:55:30;;;;;;;14.05;5.00;;;3.50;99.90;;;;;;4966787;28;20042;-88
2023/01/20 03:58:04;;;;;;;17.40;6.30;;;3.50;99.90;;;;;;4937286;28;20313;-88
2023/01/20 04:00:36;;;;;;;18.80;6.37;;;3.60;99.90;;;;;;4941598;28;20360;-88
2023/01/20 04:03:07;;;;;;;14.50;5.43;;;3.50;99.90;;;;;;4954812;28;20490;-88
2023/01/20 04:05:34;;;;;;;15.05;5.68;;;3.50;99.90;;;;;;4949034;28;20038;-87
2023/01/20 04:08:05;;;;;;;16.23;5.93;;;3.60;99.90;;;;;;4969004;28;20494;-88
2023/01/20 04:10:34;;;;;;;13.40;5.10;;;3.60;99.90;;;;;;4949612;28;20214;-88
2023/01/20 04:12:59;;;;;;;17.60;6.17;;;3.50;99.90;;;;;;4973324;28;20037;-88
2023/01/20 04:15:27;;;;;;;14.68;5.75;;;3.50;99.90;;;;;;4944508;28;20344;-88
2023/01/20 04:17:53;;;;;;;13.57;5.03;;;3.50;99.90;;;;;;4955760;28;20364;-88
2023/01/20 04:20:19;;;;;;;14.70;5.73;;;3.50;99.90;;;;;;4930108;28;20034;-88
2023/01/20 04:22:51;;;;;;;11.73;4.47;;;3.50;99.90;;;;;;4940384;28;20038;-88
2023/01/20 04:25:24;;;;;;;17.00;5.50;;;3.50;99.90;;;;;;4943246;28;20203;-88
2023/01/20 04:27:50;;;;;;;18.27;6.03;;;3.50;99.90;;;;;;4939043;28;20036;-89
2023/01/20 04:30:16;;;;;;;18.17;6.47;;;3.50;99.90;;;;;;4925107;28;20140;-88
2023/01/20 04:32:42;;;;;;;16.95;6.15;;;3.50;99.90;;;;;;4938984;28;20058;-89
2023/01/20 04:35:14;;;;;;;21.52;7.22;;;3.50;99.90;;;;;;4938234;28;20169;-88
2023/01/20 04:37:40;;;;;;;22.90;8.27;;;3.50;99.90;;;;;;4919719;28;20022;-88
2023/01/20 04:40:08;;;;;;;18.77;7.20;;;3.60;99.90;;;;;;4961482;28;20030;-88
2023/01/20 04:42:34;;;;;;;19.38;7.13;;;3.50;99.90;;;;;;4939830;28;20018;-88
2023/01/20 04:44:59;;;;;;;18.67;7.22;;;3.50;99.90;;;;;;4967887;28;20037;-88
2023/01/20 04:47:29;;;;;;;20.20;7.20;;;3.50;99.90;;;;;;4946136;28;20248;-87
2023/01/20 04:49:55;;;;;;;17.92;6.70;;;3.50;99.90;;;;;;4954203;28;20033;-89
2023/01/20 04:52:21;;;;;;;19.20;7.20;;;3.60;99.90;;;;;;4929763;28;20057;-88
2023/01/20 04:54:46;;;;;;;17.90;6.63;;;3.50;99.90;;;;;;4941902;28;20360;-88
2023/01/20 04:57:12;;;;;;;19.27;7.43;;;3.50;99.90;;;;;;4945155;28;20518;-88
2023/01/20 04:59:38;;;;;;;20.95;7.80;;;3.60;99.90;;;;;;4956560;28;21323;-88
2023/01/20 05:02:03;;;;;;;17.27;6.30;;;3.60;99.90;;;;;;4943386;28;20022;-88
2023/01/20 05:04:29;;;;;;;17.77;6.85;;;3.60;99.90;;;;;;4951094;28;20328;-88
2023/01/20 05:06:55;;;;;;;15.25;5.90;;;3.60;99.90;;;;;;4948874;28;20495;-88
2023/01/20 05:09:21;;;;;;;16.40;5.87;;;3.60;99.90;;;;;;4917670;28;20704;-88
2023/01/20 05:11:47;;;;;;;16.17;6.00;;;3.60;99.90;;;;;;4931333;28;20026;-88
2023/01/20 05:14:12;;;;;;;16.80;6.30;;;3.60;99.90;;;;;;4969355;28;20065;-87
2023/01/20 05:16:38;;;;;;;15.05;5.43;;;3.60;99.90;;;;;;4967497;28;20332;-88
2023/01/20 05:19:04;;;;;;;18.37;7.10;;;3.60;99.90;;;;;;4940011;28;20030;-88
2023/01/20 05:21:29;;;;;;;19.30;7.28;;;3.60;99.90;;;;;;4941208;28;20714;-88
2023/01/20 05:23:56;;;;;;;16.13;6.43;;;3.60;99.90;;;;;;4937295;28;20034;-88
2023/01/20 05:26:23;;;;;;;20.13;7.00;;;3.60;99.90;;;;;;4940157;28;20246;-89
2023/01/20 05:28:48;;;;;;;13.18;5.57;;;3.60;99.90;;;;;;4938663;28;20026;-87
2023/01/20 05:31:14;;;;;;;21.23;7.73;;;3.60;99.90;;;;;;4926009;28;20081;-88
2023/01/20 05:33:40;;;;;;;20.17;6.95;;;3.60;99.90;;;;;;4951610;28;20025;-88
2023/01/20 05:36:07;;;;;;;18.20;7.28;;;3.60;99.90;;;;;;4966004;28;20023;-88
2023/01/20 05:38:33;;;;;;;15.73;6.60;;;3.60;99.90;;;;;;4932022;28;20480;-89
2023/01/20 05:41:00;;;;;;;15.97;6.00;;;3.60;99.90;;;;;;4946708;28;20026;-88
2023/01/20 05:43:26;;;;;;;15.68;6.60;;;3.60;99.90;;;;;;4946339;28;20597;-89
2023/01/20 05:45:52;;;;;;;18.10;6.72;;;3.60;99.90;;;;;;4948583;28;20034;-88
2023/01/20 05:48:18;;;;;;;15.87;6.47;;;3.60;99.90;;;;;;4939389;28;20237;-88
2023/01/20 05:50:44;;;;;;;18.13;6.88;;;3.60;99.90;;;;;;4948237;28;20198;-88
2023/01/20 05:53:10;;;;;;;21.08;7.25;;;3.70;99.90;;;;;;4932370;28;20025;-89
2023/01/20 05:55:35;;;;;;;13.87;5.83;;;3.70;99.90;;;;;;4912454;28;20026;-88
2023/01/20 05:58:01;;;;;;;14.02;5.60;;;3.70;99.90;;;;;;4921701;28;20120;-88
2023/01/20 06:00:28;;;;;;;22.23;8.10;;;3.70;99.90;;;;;;4945060;28;20033;-89
2023/01/20 06:02:53;;;;;;;16.65;6.25;;;3.70;99.90;;;;;;4923483;28;20267;-88
2023/01/20 06:05:19;;;;;;;17.95;6.72;;;3.70;99.90;;;;;;4934201;28;20619;-88
2023/01/20 06:07:45;;;;;;;15.20;6.30;;;3.70;99.90;;;;;;4923056;28;20541;-89
2023/01/20 06:10:11;;;;;;;16.15;6.63;;;3.70;99.90;;;;;;4917653;28;20570;-88
2023/01/20 06:12:37;;;;;;;17.52;6.95;;;3.70;99.90;;;;;;4942529;28;20022;-87
2023/01/20 06:15:03;;;;;;;16.40;6.57;;;3.80;99.90;;;;;;4952493;28;20434;-88
2023/01/20 06:17:29;;;;;;;20.73;7.15;;;3.80;99.90;;;;;;4956195;28;20575;-88
2023/01/20 06:19:55;;;;;;;18.87;7.07;;;3.80;99.90;;;;;;4928466;28;20048;-89
2023/01/20 06:22:21;;;;;;;21.20;7.97;;;3.80;99.90;;;;;;4941664;28;20050;-89
2023/01/20 06:24:46;;;;;;;22.63;8.67;;;3.80;99.90;;;;;;4943042;28;20023;-89
2023/01/20 06:27:12;;;;;;;19.63;7.88;;;3.80;99.90;;;;;;4924654;28;20498;-89
2023/01/20 06:29:38;;;;;;;17.60;7.10;;;3.70;99.90;;;;;;4943240;28;20671;-88
2023/01/20 06:32:04;;;;;;;20.23;7.95;;;3.80;99.90;;;;;;4934482;28;20106;-88
2023/01/20 06:34:30;;;;;;;20.73;7.70;;;3.80;99.90;;;;;;4936966;28;20053;-89
2023/01/20 06:36:55;;;;;;;18.60;6.97;;;3.80;99.90;;;;;;4953303;28;20030;-88
2023/01/20 06:39:21;;;;;;;17.00;6.68;;;3.80;99.90;;;;;;4927219;28;20042;-88
2023/01/20 06:41:47;;;;;;;20.75;8.57;;;3.80;99.90;;;;;;4931686;28;20088;-89
2023/01/20 06:44:13;;;;;;;17.33;7.00;;;3.80;99.90;;;;;;4923207;28;20041;-89
2023/01/20 06:46:38;;;;;;;20.23;8.32;;;3.80;99.90;;;;;;4962022;28;20236;-88
2023/01/20 06:49:04;;;;;;;19.70;7.60;;;3.80;99.90;;;;;;4940512;28;20508;-89
2023/01/20 06:51:31;;;;;;;22.52;8.52;;;3.80;99.90;;;;;;4941455;28;20214;-89
2023/01/20 06:53:57;;;;;;;17.80;6.70;;;3.80;99.90;;;;;;4933937;28;20113;-88
2023/01/20 06:56:23;;;;;;;19.33;7.78;;;3.90;99.90;;;;;;4899806;28;20642;-88
2023/01/20 06:58:49;;;;;;;18.90;7.32;;;3.90;99.90;;;;;;4931210;28;20031;-89
2023/01/20 07:01:27;;;;;;;18.97;8.07;;;3.80;99.90;;;;;;4938830;28;20026;-89
2023/01/20 07:03:53;;;;;;;17.55;6.90;;;3.90;99.90;;;;;;4957140;28;20049;-88
2023/01/20 07:06:23;;;;;;;20.45;7.35;;;3.80;99.90;;;;;;4954473;28;20034;-88
2023/01/20 07:08:50;;;;;;;18.33;6.65;;;3.90;99.90;;;;;;4949490;28;20041;-88
2023/01/20 07:11:15;;;;;;;20.58;7.22;;;3.80;99.90;;;;;;4896960;28;20099;-90
2023/01/20 07:13:42;;;;;;;15.43;6.97;;;3.80;99.90;;;;;;4951338;28;20026;-88
2023/01/20 07:16:08;;;;;;;15.13;5.85;;;3.90;99.90;;;;;;4933808;28;20426;-91
2023/01/20 07:18:34;;;;;;;17.08;6.80;;;3.90;99.90;;;;;;4934685;28;20439;-91
2023/01/20 07:21:15;;;;;;;19.23;7.40;;;3.90;99.90;;;;;;4883563;28;20465;-92
2023/01/20 07:23:40;;;;;;;21.27;7.60;;;3.90;99.90;;;;;;4964611;28;20064;-88
2023/01/20 07:26:11;;;;;;;17.67;7.23;;;3.90;99.90;;;;;;4927811;28;20633;-88
2023/01/20 07:28:37;;;;;;;19.08;7.75;;;3.90;99.90;;;;;;4931309;28;20654;-89
2023/01/20 07:31:15;;;;;;;17.85;7.18;;;3.90;99.90;;;;;;4955722;28;20507;-88
2023/01/20 07:33:41;;;;;;;20.75;7.82;;;3.90;99.90;;;;;;4942302;28;20050;-88
2023/01/20 07:36:08;;;;;;;15.07;6.13;;;3.90;99.90;;;;;;4965717;28;20049;-88
2023/01/20 07:38:34;;;;;;;16.03;6.40;;;4.00;99.90;;;;;;4958287;28;20665;-88
2023/01/20 07:41:03;;;;;;;14.75;6.50;;;3.90;99.90;;;;;;4940036;28;20494;-88
2023/01/20 07:43:29;;;;;;;16.15;6.13;;;4.00;99.90;;;;;;4926578;28;20561;-88
2023/01/20 07:46:01;;;;;;;17.73;6.28;;;4.00;99.90;;;;;;4956275;28;20034;-89
2023/01/20 07:48:28;;;;;;;15.98;6.30;;;4.00;99.90;;;;;;4965217;28;20249;-89
2023/01/20 07:51:00;;;;;;;18.90;6.50;;;4.00;99.90;;;;;;4952717;28;20033;-88
2023/01/20 07:53:37;;;;;;;16.80;6.63;;;4.00;99.90;;;;;;4940716;28;20161;-89
2023/01/20 07:56:05;;;;;;;15.02;5.82;;;4.00;99.90;;;;;;4955248;28;20034;-88
2023/01/20 07:58:31;;;;;;;14.02;5.68;;;4.00;99.90;;;;;;4902562;28;20650;-88
2023/01/20 08:01:04;;;;;;;16.88;6.00;;;4.00;99.90;;;;;;4940822;28;20740;-88
2023/01/20 08:03:30;;;;;;;16.17;6.33;;;3.90;99.90;;;;;;4951404;28;20026;-88
2023/01/20 08:05:55;;;;;;;13.90;5.35;;;3.90;99.90;;;;;;4952999;28;20065;-88
2023/01/20 08:08:22;;;;;;;12.90;5.50;;;3.90;99.90;;;;;;4927336;28;20034;-88
2023/01/20 08:10:53;;;;;;;11.38;4.90;;;3.90;99.90;;;;;;4942264;28;20637;-87
2023/01/20 08:13:18;;;;;;;11.15;4.80;;;3.90;99.90;;;;;;4932051;28;20024;-88
2023/01/20 08:15:44;;;;;;;11.73;4.80;;;3.80;99.90;;;;;;4938187;28;20031;-89
2023/01/20 08:18:10;;;;;;;11.45;4.55;;;3.80;99.90;;;;;;4939144;28;20034;-89
2023/01/20 08:20:39;;;;;;;14.63;5.90;;;3.80;99.90;;;;;;4955395;28;20061;-89
2023/01/20 08:23:05;;;;;;;16.45;6.53;;;3.80;99.90;;;;;;4931594;28;20038;-89
2023/01/20 08:25:31;;;;;;;17.67;6.97;;;3.80;99.90;;;;;;4939985;28;20282;-90
2023/01/20 08:27:56;;;;;;;13.33;6.07;;;3.80;99.90;;;;;;4926810;28;20100;-89
2023/01/20 08:30:22;;;;;;;14.13;5.18;;;3.80;99.90;;;;;;4925750;28;20033;-90
2023/01/20 08:32:48;;;;;;;12.13;5.00;;;3.70;99.90;;;;;;4951208;28;20356;-88
2023/01/20 08:35:14;;;;;;;12.38;5.03;;;3.70;99.90;;;;;;4953022;28;20022;-87
2023/01/20 08:37:40;;;;;;;10.25;4.35;;;3.70;99.90;;;;;;4938796;28;20094;-88
2023/01/20 08:40:09;;;;;;;13.67;5.03;;;3.70;99.90;;;;;;4936725;28;20475;-87
2023/01/20 08:42:36;;;;;;;19.25;6.85;;;3.70;99.90;;;;;;4939843;28;20022;-88
2023/01/20 08:45:04;;;;;;;20.67;8.38;;;3.60;99.90;;;;;;4926777;28;20126;-88
2023/01/20 08:47:30;;;;;;;13.67;5.97;;;3.60;99.90;;;;;;4941129;28;20088;-87
2023/01/20 08:49:56;;;;;;;16.95;6.25;;;3.60;99.90;;;;;;4939157;28;20499;-88
2023/01/20 08:52:21;;;;;;;12.98;5.47;;;3.60;99.90;;;;;;4929462;28;20018;-89
2023/01/20 08:54:51;;;;;;;13.03;5.40;;;3.60;99.90;;;;;;4965571;28;20105;-88
2023/01/20 08:57:17;;;;;;;14.23;5.40;;;3.60;99.90;;;;;;4935935;28;20571;-89
2023/01/20 08:59:45;;;;;;;16.40;6.28;;;3.60;99.90;;;;;;4940580;28;20798;-88
2023/01/20 09:02:11;;;;;;;17.30;7.05;;;3.60;99.90;;;;;;4931981;28;20086;-89
2023/01/20 09:04:37;;;;;;;14.40;5.93;;;3.70;99.90;;;;;;4942812;28;20134;-88
2023/01/20 09:07:03;;;;;;;16.05;7.10;;;3.60;99.90;;;;;;4937662;28;20189;-89
2023/01/20 09:09:30;;;;;;;16.27;6.53;;;3.70;99.90;;;;;;4937517;28;20510;-89
2023/01/20 09:11:56;;;;;;;14.77;5.80;;;3.70;99.90;;;;;;4971070;28;20034;-89
2023/01/20 09:14:23;;;;;;;13.40;5.25;;;3.70;99.90;;;;;;4970366;28;20018;-89
2023/01/20 09:16:50;;;;;;;13.82;6.15;;;3.80;99.90;;;;;;4944931;28;20027;-88
2023/01/20 09:19:15;;;;;;;17.00;6.90;;;3.80;99.90;;;;;;4934926;28;20586;-88
2023/01/20 09:21:42;;;;;;;14.70;5.97;;;3.80;99.90;;;;;;4941857;28;20038;-88
2023/01/20 09:24:09;;;;;;;12.63;5.47;;;3.90;99.90;;;;;;4930210;28;20121;-88
2023/01/20 09:26:37;;;;;;;14.02;6.05;;;3.90;99.90;;;;;;4941541;28;20088;-88
2023/01/20 09:29:13;;;;;;;13.75;6.55;;;4.00;99.90;;;;;;4957441;28;20023;-88
2023/01/20 09:31:44;;;;;;;13.23;6.47;;;4.10;99.90;;;;;;4916336;28;20112;-87
2023/01/20 09:34:17;;;;;;;15.25;6.38;;;4.20;99.90;;;;;;4943841;28;20030;-87
2023/01/20 09:36:44;;;;;;;14.88;6.75;;;4.20;99.90;;;;;;4958531;28;20063;-87
2023/01/20 09:45:05;;;;;;;13.13;5.87;;;4.50;99.90;;;;;;4957754;28;20029;-87
2023/01/20 09:47:40;;;;;;;12.38;5.50;;;4.60;99.90;;;;;;4946461;28;20037;-87
2023/01/20 09:53:21;;;;;;;13.93;6.18;;;4.70;99.90;;;;;;4951711;28;20053;-87
2023/01/20 09:55:56;;;;;;;12.38;6.05;;;4.70;99.90;;;;;;4964371;28;20081;-87
2023/01/20 09:58:45;;;;;;;13.73;5.10;;;4.70;99.90;;;;;;4960334;28;20177;-88
2023/01/20 10:01:34;;;;;;;12.18;5.20;;;4.70;99.90;;;;;;4953739;28;20022;-88
2023/01/20 10:04:13;;;;;;;10.80;4.93;;;4.80;99.90;;;;;;4930393;28;20042;-88
2023/01/20 10:06:46;;;;;;;11.18;5.00;;;4.80;99.90;;;;;;4956591;28;20514;-87
2023/01/20 10:09:26;;;;;;;11.07;5.45;;;4.80;99.90;;;;;;4940092;28;20236;-87
2023/01/20 10:12:07;;;;;;;10.67;5.23;;;4.80;99.90;;;;;;4941957;28;20596;-87
2023/01/20 10:14:38;;;;;;;11.57;5.38;;;4.80;99.90;;;;;;4965790;28;20145;-88
2023/01/20 10:17:12;;;;;;;11.15;5.18;;;4.90;99.90;;;;;;4941337;28;20068;-87
2023/01/20 10:20:06;;;;;;;13.98;5.60;;;4.90;99.90;;;;;;4956480;28;20101;-87
2023/01/20 10:22:41;;;;;;;10.60;4.80;;;4.90;99.90;;;;;;4951473;28;20124;-88
2023/01/20 10:25:24;;;;;;;8.50;4.80;;;4.90;99.90;;;;;;4967080;28;20034;-87
2023/01/20 10:27:58;;;;;;;9.73;4.35;;;5.00;99.90;;;;;;4957709;28;20041;-87
2023/01/20 10:30:29;;;;;;;10.48;5.18;;;5.00;99.90;;;;;;4966509;28;20033;-88
2023/01/20 10:33:07;;;;;;;10.38;4.72;;;5.00;99.90;;;;;;4910896;28;20033;-88
2023/01/20 10:35:40;;;;;;;10.20;4.50;;;5.00;99.90;;;;;;4924241;28;20033;-87
2023/01/20 10:38:12;;;;;;;9.40;4.47;;;5.10;99.90;;;;;;4935176;28;20031;-87
2023/01/20 10:40:48;;;;;;;10.80;5.38;;;5.10;99.90;;;;;;4954514;28;20034;-87
2023/01/20 10:43:16;;;;;;;13.57;5.78;;;5.20;99.90;;;;;;4926130;28;20169;-87
2023/01/20 10:45:57;;;;;;;9.90;4.70;;;5.20;99.90;;;;;;4937236;28;20038;-87
2023/01/20 10:48:23;;;;;;;10.23;4.90;;;5.30;99.90;;;;;;4908820;28;25998;-87
2023/01/20 10:50:58;;;;;;;14.13;5.00;;;5.30;99.90;;;;;;4954638;28;20573;-88
2023/01/20 10:54:17;;;;;;;7.95;4.10;;;5.30;99.90;;;;;;4954729;28;20615;-88
2023/01/20 10:56:52;;;;;;;11.32;5.05;;;5.30;99.90;;;;;;4890272;29;20046;-88
2023/01/20 10:59:29;;;;;;;11.38;4.57;;;5.40;99.90;;;;;;4935137;28;20050;-88
2023/01/20 11:02:02;;;;;;;8.10;3.80;;;5.40;99.90;;;;;;4952247;28;20054;-88
2023/01/20 11:04:28;;;;;;;9.48;3.95;;;5.40;99.90;;;;;;4913761;28;20471;-88
2023/01/20 11:06:57;;;;;;;8.40;4.10;;;5.40;99.90;;;;;;4957658;28;20058;-88
2023/01/20 11:09:33;;;;;;;10.10;4.33;;;5.50;99.90;;;;;;4958482;28;20292;-87
2023/01/20 11:12:02;;;;;;;8.55;4.05;;;5.50;99.90;;;;;;4952204;28;20033;-87
2023/01/20 11:14:28;;;;;;;9.20;4.28;;;5.50;99.90;;;;;;4940164;28;20033;-88
2023/01/20 11:17:03;;;;;;;8.95;4.43;;;5.60;99.90;;;;;;4943320;28;20033;-87
2023/01/20 11:19:49;;;;;;;8.30;3.55;;;5.60;99.90;;;;;;4916257;28;20033;-87
2023/01/20 11:22:22;;;;;;;8.57;3.43;;;5.60;99.90;;;;;;4970440;28;20046;-87
2023/01/20 11:24:54;;;;;;;6.28;3.60;;;5.60;99.90;;;;;;4956885;28;20026;-87
2023/01/20 11:27:22;;;;;;;11.30;4.43;;;5.70;99.90;;;;;;4926023;28;20019;-86
2023/01/20 11:29:51;;;;;;;5.93;3.00;;;5.60;99.90;;;;;;4946971;28;20180;-86
2023/01/20 11:32:30;;;;;;;5.72;3.00;;;5.70;99.90;;;;;;4930883;28;20173;-86
2023/01/20 11:34:57;;;;;;;5.40;2.60;;;5.70;99.90;;;;;;4927691;28;20361;-86
2023/01/20 11:37:26;;;;;;;5.13;2.88;;;5.70;99.90;;;;;;4962030;28;20033;-85
2023/01/20 11:39:52;;;;;;;5.45;3.10;;;5.70;99.90;;;;;;4940563;28;20391;-85
2023/01/20 11:42:26;;;;;;;7.35;4.07;;;5.70;99.90;;;;;;4940632;28;20053;-87
2023/01/20 11:44:53;;;;;;;6.35;3.67;;;5.60;99.90;;;;;;4931684;28;20496;-86
2023/01/20 11:47:31;;;;;;;6.13;3.10;;;5.60;99.90;;;;;;4944943;28;20110;-87
2023/01/20 11:50:03;;;;;;;5.50;2.90;;;5.60;99.90;;;;;;4931620;28;20026;-87
2023/01/20 11:52:33;;;;;;;4.75;3.30;;;5.50;99.90;;;;;;4948084;28;20570;-87
2023/01/20 11:55:09;;;;;;;5.20;2.92;;;5.50;99.90;;;;;;4940602;28;20108;-88
2023/01/20 11:57:36;;;;;;;6.05;3.50;;;5.40;99.90;;;;;;4946260;28;20027;-88
2023/01/20 12:00:03;;;;;;;5.87;3.20;;;5.40;99.90;;;;;;4960042;28;20439;-87
2023/01/20 12:02:29;;;;;;;5.03;3.55;;;5.40;99.90;;;;;;4948990;28;20019;-87
2023/01/20 12:05:15;;;;;;;5.80;3.40;;;5.30;99.90;;;;;;4929259;28;20495;-87
2023/01/20 12:07:43;;;;;;;5.10;2.90;;;5.30;99.90;;;;;;4974605;28;20046;-87
2023/01/20 12:10:29;;;;;;;4.30;2.80;;;5.30;99.90;;;;;;4951252;28;20396;-87
2023/01/20 12:13:21;;;;;;;4.22;2.40;;;5.20;99.90;;;;;;4934508;28;20038;-86
2023/01/20 12:15:53;;;;;;;3.83;2.30;;;5.10;99.90;;;;;;4962088;28;20434;-86
2023/01/20 12:18:39;;;;;;;4.47;2.90;;;5.10;99.90;;;;;;4953018;28;20030;-86
2023/01/20 12:21:17;;;;;;;4.53;2.83;;;5.00;99.90;;;;;;4927140;28;20483;-86
2023/01/20 12:23:58;;;;;;;4.25;2.75;;;4.90;99.90;;;;;;4942641;28;20027;-86
2023/01/20 12:26:27;;;;;;;4.05;2.70;;;4.80;99.90;;;;;;4956098;28;20093;-85
2023/01/20 12:29:10;;;;;;;5.28;3.22;;;4.80;99.90;;;;;;4958372;28;20041;-85
2023/01/20 12:31:36;;;;;;;5.35;3.58;;;4.70;99.90;;;;;;4936023;28;20057;-86
2023/01/20 12:34:03;;;;;;;5.60;3.20;;;4.60;99.90;;;;;;4937761;28;20102;-86
2023/01/20 12:36:55;;;;;;;6.43;3.70;;;4.60;99.90;;;;;;4909293;28;20028;-86
2023/01/20 12:39:21;;;;;;;5.38;2.97;;;4.60;99.90;;;;;;4956313;28;20292;-86
2023/01/20 12:42:05;;;;;;;3.87;2.77;;;4.60;99.90;;;;;;4958268;28;20038;-86
2023/01/20 12:44:49;;;;;;;4.95;3.10;;;4.60;99.90;;;;;;4971665;28;20133;-86
2023/01/20 12:47:21;;;;;;;4.97;3.05;;;4.60;99.90;;;;;;4944294;28;20034;-86
2023/01/20 12:50:16;;;;;;;4.55;3.17;;;4.60;99.90;;;;;;4953173;28;20030;-86
2023/01/20 12:52:57;;;;;;;4.60;3.13;;;4.60;99.90;;;;;;4924312;28;20034;-86
2023/01/20 12:55:34;;;;;;;5.32;3.40;;;4.60;99.90;;;;;;4954089;28;20121;-86
2023/01/20 12:58:16;;;;;;;5.00;3.25;;;4.60;99.90;;;;;;4969091;28;20030;-86
2023/01/20 13:01:15;;;;;;;5.65;3.50;;;4.70;99.90;;;;;;4963409;28;20503;-87
2023/01/20 13:04:10;;;;;;;4.40;3.00;;;4.70;99.90;;;;;;4952242;28;20356;-87
2023/01/20 13:06:51;;;;;;;5.50;3.23;;;4.70;99.90;;;;;;4926227;28;20053;-87
2023/01/20 13:09:40;;;;;;;5.47;3.45;;;4.80;99.90;;;;;;4954739;28;20497;-87
2023/01/20 13:12:09;;;;;;;5.32;3.30;;;4.80;99.90;;;;;;4940386;28;20053;-87
2023/01/20 13:15:12;;;;;;;6.32;3.40;;;4.90;99.90;;;;;;4974886;28;20547;-87